createdAt,value
2023-04-08T00:00:52.966Z,22.27
2023-04-08T00:03:21.648Z,20.97
2023-04-08T00:05:49.505Z,21.37
2023-04-08T00:08:17.061Z,22.69
2023-04-08T00:10:44.740Z,22.55
2023-04-08T00:13:13.320Z,23.06
2023-04-08T00:15:41.406Z,21.77
2023-04-08T00:18:08.980Z,22.85
2023-04-08T00:20:36.676Z,20.17
2023-04-08T00:23:04.249Z,21.90
2023-04-08T00:25:31.886Z,21.68
2023-04-08T00:27:59.385Z,20.89
2023-04-08T00:30:28.207Z,21.69
2023-04-08T00:32:56.070Z,22.99
2023-04-08T00:35:24.702Z,22.87
2023-04-08T00:37:52.476Z,20.70
2023-04-08T00:40:21.708Z,22.05
2023-04-08T00:42:49.296Z,22.95
2023-04-08T00:45:16.925Z,21.78
2023-04-08T00:47:44.554Z,21.02
2023-04-08T00:50:12.884Z,20.80
2023-04-08T00:52:41.449Z,22.26
2023-04-08T00:55:09.034Z,23.18
2023-04-08T00:57:36.684Z,22.09
2023-04-08T01:00:06.596Z,22.15
2023-04-08T01:02:47.886Z,22.59
2023-04-08T01:05:30.932Z,20.51
2023-04-08T01:08:02.046Z,21.20
2023-04-08T01:10:33.507Z,19.72
2023-04-08T01:13:08.565Z,19.66
2023-04-08T01:15:39.342Z,22.24
2023-04-08T01:18:09.452Z,20.52
2023-04-08T01:20:38.838Z,20.49
2023-04-08T01:23:41.208Z,22.79
2023-04-08T01:26:12.425Z,23.18
2023-04-08T01:28:43.939Z,22.25
2023-04-08T01:31:12.269Z,21.27
2023-04-08T01:33:40.329Z,19.69
2023-04-08T01:36:09.427Z,22.16
2023-04-08T01:38:39.520Z,23.01
2023-04-08T01:41:11.053Z,23.19
2023-04-08T01:43:44.381Z,22.69
2023-04-08T01:46:13.853Z,21.30
2023-04-08T01:48:42.712Z,19.97
2023-04-08T01:51:11.631Z,19.63
2023-04-08T01:53:39.539Z,19.49
2023-04-08T01:56:11.918Z,20.23
2023-04-08T01:58:46.736Z,21.36
2023-04-08T02:01:19.041Z,21.83
2023-04-08T02:03:47.607Z,21.63
2023-04-08T02:06:15.291Z,21.58
2023-04-08T02:08:42.843Z,22.16
2023-04-08T02:11:11.165Z,21.36
2023-04-08T02:13:38.741Z,22.49
2023-04-08T02:16:35.102Z,20.82
2023-04-08T02:19:11.842Z,21.60
2023-04-08T02:21:46.568Z,19.47
2023-04-08T02:24:16.693Z,20.75
2023-04-08T02:26:45.666Z,22.01
2023-04-08T02:29:16.207Z,22.93
2023-04-08T02:31:45.496Z,22.93
2023-04-08T02:34:16.899Z,22.66
2023-04-08T02:36:46.249Z,21.66
2023-04-08T02:39:14.572Z,22.18
2023-04-08T02:41:42.099Z,21.40
2023-04-08T02:44:10.144Z,20.80
2023-04-08T02:46:41.449Z,21.59
2023-04-08T02:49:09.130Z,21.82
2023-04-08T02:51:37.580Z,20.39
2023-04-08T02:54:05.257Z,20.83
2023-04-08T02:56:33.386Z,20.41
2023-04-08T02:59:01.249Z,21.24
2023-04-08T03:01:28.887Z,20.04
2023-04-08T03:03:56.591Z,19.27
2023-04-08T03:06:24.180Z,21.37
2023-04-08T03:08:51.953Z,21.84
2023-04-08T03:11:21.550Z,21.22
2023-04-08T03:13:49.391Z,20.97
2023-04-08T03:16:16.985Z,20.63
2023-04-08T03:18:44.598Z,21.60
2023-04-08T03:21:12.104Z,20.62
2023-04-08T03:23:39.689Z,21.11
2023-04-08T03:26:07.175Z,19.14
2023-04-08T03:28:34.709Z,20.30
2023-04-08T03:31:04.644Z,20.18
2023-04-08T03:33:32.543Z,19.58
2023-04-08T03:36:00.172Z,19.75
2023-04-08T03:38:27.794Z,21.16
2023-04-08T03:40:56.891Z,21.53
2023-04-08T03:43:25.544Z,21.99
2023-04-08T03:45:53.137Z,21.54
2023-04-08T03:48:20.753Z,21.92
2023-04-08T03:50:48.576Z,21.23
2023-04-08T03:53:16.259Z,22.48
2023-04-08T03:55:43.975Z,20.86
2023-04-08T03:58:11.556Z,21.29
2023-04-08T04:00:39.261Z,21.99
2023-04-08T04:03:06.887Z,22.15
2023-04-08T04:05:34.664Z,21.03
2023-04-08T04:08:02.547Z,20.81
2023-04-08T04:10:30.310Z,20.67
2023-04-08T04:12:57.959Z,20.46
2023-04-08T04:15:25.554Z,21.56
2023-04-08T04:17:53.264Z,21.68
2023-04-08T04:20:21.996Z,19.07
2023-04-08T04:22:49.608Z,20.94
2023-04-08T04:25:17.156Z,19.32
2023-04-08T04:27:44.786Z,21.02
2023-04-08T04:30:15.613Z,20.52
2023-04-08T04:32:43.533Z,19.38
2023-04-08T04:35:11.718Z,19.70
2023-04-08T04:37:39.496Z,19.80
2023-04-08T04:40:08.212Z,21.13
2023-04-08T04:42:36.174Z,20.58
2023-04-08T04:45:04.169Z,21.02
2023-04-08T04:47:32.838Z,20.57
2023-04-08T04:50:00.556Z,21.62
2023-04-08T04:52:28.036Z,19.59
2023-04-08T04:54:57.650Z,21.78
2023-04-08T04:57:25.610Z,21.32
2023-04-08T04:59:53.452Z,19.66
2023-04-08T05:02:21.219Z,19.84
2023-04-08T05:04:48.938Z,20.40
2023-04-08T05:07:16.510Z,19.58
2023-04-08T05:09:44.659Z,19.11
2023-04-08T05:12:12.703Z,20.48
2023-04-08T05:14:41.335Z,21.15
2023-04-08T05:17:09.036Z,20.54
2023-04-08T05:19:36.903Z,20.15
2023-04-08T05:22:05.168Z,20.91
2023-04-08T05:24:32.748Z,19.45
2023-04-08T05:27:01.207Z,19.75
2023-04-08T05:29:28.929Z,21.17
2023-04-08T05:31:56.756Z,20.43
2023-04-08T05:34:24.515Z,20.49
2023-04-08T05:36:52.200Z,21.81
2023-04-08T05:39:20.464Z,20.26
2023-04-08T05:41:48.097Z,20.96
2023-04-08T05:44:15.609Z,21.31
2023-04-08T05:46:43.180Z,21.58
2023-04-08T05:49:10.851Z,21.71
2023-04-08T05:51:39.395Z,20.93
2023-04-08T05:54:06.930Z,20.70
2023-04-08T05:56:35.052Z,21.02
2023-04-08T05:59:02.574Z,20.64
2023-04-08T06:01:30.656Z,21.49
2023-04-08T06:03:58.555Z,20.11
2023-04-08T06:06:26.249Z,19.72
2023-04-08T06:08:54.351Z,21.36
2023-04-08T06:11:21.983Z,21.25
2023-04-08T06:13:49.539Z,20.48
2023-04-08T06:16:20.363Z,21.26
2023-04-08T06:18:49.323Z,21.37
2023-04-08T06:21:17.038Z,20.95
2023-04-08T06:23:44.618Z,20.69
2023-04-08T06:26:13.320Z,20.97
2023-04-08T06:28:40.931Z,21.13
2023-04-08T06:31:08.522Z,19.97
2023-04-08T06:33:36.192Z,19.47
2023-04-08T06:36:07.445Z,19.69
2023-04-08T06:38:35.709Z,20.20
2023-04-08T06:41:07.230Z,21.48
2023-04-08T06:43:38.079Z,19.20
2023-04-08T06:46:06.177Z,21.16
2023-04-08T06:48:34.007Z,21.27
2023-04-08T06:51:01.984Z,19.81
2023-04-08T06:53:30.757Z,22.34
2023-04-08T06:55:58.350Z,21.88
2023-04-08T06:58:26.373Z,22.55
2023-04-08T07:00:55.864Z,23.18
2023-04-08T07:03:24.211Z,22.22
2023-04-08T07:05:52.679Z,21.57
2023-04-08T07:08:20.630Z,21.88
2023-04-08T07:10:49.045Z,22.01
2023-04-08T07:13:17.473Z,21.35
2023-04-08T07:15:45.140Z,22.13
2023-04-08T07:18:13.566Z,22.65
2023-04-08T07:20:42.059Z,23.69
2023-04-08T07:23:09.806Z,23.87
2023-04-08T07:25:37.818Z,23.53
2023-04-08T07:28:05.463Z,22.77
2023-04-08T07:30:33.058Z,23.23
2023-04-08T07:33:01.063Z,22.25
2023-04-08T07:35:29.178Z,22.03
2023-04-08T07:37:57.757Z,22.38
2023-04-08T07:40:25.793Z,21.51
2023-04-08T07:42:53.405Z,21.33
2023-04-08T07:45:21.182Z,22.14
2023-04-08T07:47:48.871Z,22.07
2023-04-08T07:50:17.107Z,21.59
2023-04-08T07:52:44.738Z,20.95
2023-04-08T07:55:12.374Z,20.72
2023-04-08T07:57:40.123Z,20.97
2023-04-08T08:00:08.795Z,21.80
2023-04-08T08:02:42.794Z,21.26
2023-04-08T08:05:10.508Z,20.06
2023-04-08T08:07:38.025Z,20.80
2023-04-08T08:10:06.430Z,21.20
2023-04-08T08:12:34.764Z,22.48
2023-04-08T08:15:02.667Z,21.19
2023-04-08T08:17:33.675Z,21.84
2023-04-08T08:20:04.262Z,19.74
2023-04-08T08:22:31.936Z,22.42
2023-04-08T08:24:59.697Z,23.45
2023-04-08T08:27:27.257Z,21.16
2023-04-08T08:29:55.203Z,19.90
2023-04-08T08:32:22.807Z,21.28
2023-04-08T08:34:50.438Z,19.59
2023-04-08T08:37:17.970Z,19.57
2023-04-08T08:39:46.711Z,21.18
2023-04-08T08:42:25.247Z,21.30
2023-04-08T08:44:52.891Z,22.42
2023-04-08T08:47:20.770Z,21.29
2023-04-08T08:49:49.037Z,21.90
2023-04-08T08:52:17.886Z,20.63
2023-04-08T08:54:46.340Z,21.76
2023-04-08T08:57:20.590Z,20.43
2023-04-08T08:59:49.518Z,20.89
2023-04-08T09:02:33.209Z,22.45
2023-04-08T09:05:03.178Z,21.69
2023-04-08T09:07:35.181Z,19.32
2023-04-08T09:10:06.380Z,19.25
2023-04-08T09:12:34.040Z,21.56
2023-04-08T09:15:07.789Z,21.85
2023-04-08T09:17:40.416Z,21.39
2023-04-08T09:20:12.417Z,21.19
2023-04-08T09:22:53.973Z,22.30
2023-04-08T09:25:29.890Z,22.62
2023-04-08T09:27:57.621Z,21.86
2023-04-08T09:30:27.474Z,21.21
2023-04-08T09:32:58.372Z,22.25
2023-04-08T09:35:26.334Z,22.90
2023-04-08T09:37:54.149Z,22.32
2023-04-08T09:40:24.160Z,22.67
2023-04-08T09:42:54.713Z,22.05
2023-04-08T09:45:25.727Z,21.98
2023-04-08T09:48:15.782Z,22.20
2023-04-08T09:50:49.559Z,20.64
2023-04-08T09:53:26.478Z,19.79
2023-04-08T09:55:57.420Z,21.68
2023-04-08T09:58:39.764Z,22.80
2023-04-08T10:01:08.245Z,21.62
2023-04-08T10:03:49.136Z,23.11
2023-04-08T10:06:17.521Z,22.98
2023-04-08T10:08:45.790Z,23.76
2023-04-08T10:11:16.240Z,23.52
2023-04-08T10:13:44.469Z,22.20
2023-04-08T10:16:28.450Z,22.17
2023-04-08T10:18:57.269Z,20.25
2023-04-08T10:21:48.659Z,21.91
2023-04-08T10:24:18.639Z,21.65
2023-04-08T10:26:46.142Z,20.83
2023-04-08T10:29:19.541Z,22.52
2023-04-08T10:31:48.902Z,21.52
2023-04-08T10:34:21.508Z,22.47
2023-04-08T10:36:49.858Z,22.14
2023-04-08T10:39:17.493Z,22.58
2023-04-08T10:41:45.956Z,21.17
2023-04-08T10:44:21.293Z,22.74
2023-04-08T10:46:50.806Z,22.77
2023-04-08T10:49:19.461Z,21.76
2023-04-08T10:51:47.231Z,22.39
2023-04-08T10:54:17.081Z,21.54
2023-04-08T10:56:50.006Z,21.79
2023-04-08T10:59:27.653Z,19.96
2023-04-08T11:01:55.679Z,20.86
2023-04-08T11:04:23.810Z,21.19
2023-04-08T11:06:52.625Z,22.43
2023-04-08T11:09:20.389Z,22.49
2023-04-08T11:11:47.918Z,22.17
2023-04-08T11:14:19.662Z,22.05
2023-04-08T11:16:47.458Z,21.60
2023-04-08T11:19:15.448Z,22.36
2023-04-08T11:21:43.085Z,21.94
2023-04-08T11:24:16.486Z,23.96
2023-04-08T11:26:44.224Z,22.09
2023-04-08T11:29:14.397Z,21.12
2023-04-08T11:31:44.069Z,20.24
2023-04-08T11:34:12.172Z,19.93
2023-04-08T11:36:42.682Z,21.70
2023-04-08T11:39:12.226Z,21.42
2023-04-08T11:41:42.979Z,20.65
2023-04-08T11:44:10.692Z,21.40
2023-04-08T11:46:40.277Z,21.85
2023-04-08T11:49:08.974Z,21.41
2023-04-08T11:51:55.255Z,22.12
2023-04-08T11:54:27.642Z,22.32
2023-04-08T11:56:56.156Z,21.53
2023-04-08T11:59:26.346Z,21.53
2023-04-08T12:01:56.351Z,21.14
2023-04-08T12:04:24.602Z,22.66
2023-04-08T12:06:52.474Z,21.91
2023-04-08T12:09:20.479Z,22.55
2023-04-08T12:11:48.132Z,22.06
2023-04-08T12:14:16.038Z,21.95
2023-04-08T12:16:43.717Z,23.96
2023-04-08T12:19:11.481Z,24.10
2023-04-08T12:21:39.461Z,22.04
2023-04-08T12:24:07.508Z,22.75
2023-04-08T12:26:35.175Z,21.29
2023-04-08T12:29:02.688Z,20.79
2023-04-08T12:31:30.492Z,20.18
2023-04-08T12:33:58.096Z,21.74
2023-04-08T12:36:27.261Z,22.21
2023-04-08T12:38:54.897Z,22.24
2023-04-08T12:41:22.407Z,22.25
2023-04-08T12:43:49.901Z,20.09
2023-04-08T12:46:17.688Z,20.61
2023-04-08T12:48:47.553Z,22.22
2023-04-08T12:51:15.246Z,23.44
2023-04-08T12:53:43.025Z,24.48
2023-04-08T12:56:10.686Z,21.75
2023-04-08T12:58:38.432Z,21.21
2023-04-08T13:01:06.354Z,22.74
2023-04-08T13:03:36.153Z,20.77
2023-04-08T13:06:04.021Z,22.70
2023-04-08T13:08:31.796Z,22.76
2023-04-08T13:10:59.397Z,23.82
2023-04-08T13:13:26.890Z,23.17
2023-04-08T13:15:54.507Z,24.48
2023-04-08T13:18:22.773Z,24.02
2023-04-08T13:20:50.297Z,22.96
2023-04-08T13:23:18.172Z,25.35
2023-04-08T13:25:45.780Z,24.12
2023-04-08T13:28:13.410Z,23.05
2023-04-08T13:30:40.987Z,22.24
2023-04-08T13:33:08.604Z,20.93
2023-04-08T13:35:36.314Z,22.04
2023-04-08T13:38:03.869Z,22.77
2023-04-08T13:40:31.836Z,23.93
2023-04-08T13:42:59.356Z,23.02
2023-04-08T13:45:27.435Z,23.44
2023-04-08T13:47:55.038Z,23.19
2023-04-08T13:50:24.087Z,23.06
2023-04-08T13:52:51.635Z,22.00
2023-04-08T13:55:19.282Z,22.14
2023-04-08T13:57:46.933Z,21.14
2023-04-08T14:00:16.822Z,20.45
2023-04-08T14:02:44.562Z,21.95
2023-04-08T14:05:12.278Z,23.93
2023-04-08T14:07:40.013Z,23.46
2023-04-08T14:10:09.473Z,24.55
2023-04-08T14:12:37.038Z,20.82
2023-04-08T14:15:04.956Z,19.18
2023-04-08T14:17:34.911Z,21.43
2023-04-08T14:20:05.553Z,22.32
2023-04-08T14:22:33.988Z,24.21
2023-04-08T14:25:01.659Z,24.52
2023-04-08T14:27:32.345Z,22.70
2023-04-08T14:30:00.470Z,22.84
2023-04-08T14:32:28.124Z,20.94
2023-04-08T14:34:55.760Z,21.86
2023-04-08T14:37:23.358Z,22.82
2023-04-08T14:39:51.250Z,24.13
2023-04-08T14:42:18.998Z,24.47
2023-04-08T14:44:46.561Z,23.73
2023-04-08T14:47:14.115Z,23.13
2023-04-08T14:49:41.691Z,20.84
2023-04-08T14:52:09.338Z,19.91
2023-04-08T14:54:36.923Z,23.19
2023-04-08T14:57:04.486Z,22.88
2023-04-08T14:59:32.416Z,22.65
2023-04-08T15:02:00.027Z,24.44
2023-04-08T15:04:27.755Z,23.45
2023-04-08T15:06:55.787Z,24.34
2023-04-08T15:09:23.323Z,23.43
2023-04-08T15:11:50.836Z,23.08
2023-04-08T15:14:18.721Z,21.58
2023-04-08T15:16:47.622Z,23.76
2023-04-08T15:19:15.498Z,22.25
2023-04-08T15:21:43.167Z,23.81
2023-04-08T15:24:10.754Z,22.61
2023-04-08T15:26:38.307Z,23.63
2023-04-08T15:29:06.078Z,21.94
2023-04-08T15:31:35.040Z,24.24
2023-04-08T15:34:03.678Z,22.43
2023-04-08T15:36:31.393Z,21.75
2023-04-08T15:38:59.078Z,20.82
2023-04-08T15:41:30.038Z,21.47
2023-04-08T15:43:57.892Z,19.44
2023-04-08T15:46:25.459Z,21.24
2023-04-08T15:48:53.481Z,20.02
2023-04-08T15:51:21.223Z,21.99
2023-04-08T15:53:51.599Z,20.36
2023-04-08T15:56:19.320Z,22.74
2023-04-08T15:58:47.062Z,22.79
2023-04-08T16:01:15.337Z,22.87
2023-04-08T16:03:43.581Z,22.12
2023-04-08T16:06:11.272Z,21.97
2023-04-08T16:08:39.567Z,24.49
2023-04-08T16:11:08.164Z,24.67
2023-04-08T16:13:35.861Z,24.15
2023-04-08T16:16:03.882Z,25.05
2023-04-08T16:18:31.667Z,22.74
2023-04-08T16:20:59.260Z,24.21
2023-04-08T16:23:27.351Z,24.21
2023-04-08T16:28:22.133Z,23.40
2023-04-08T16:30:49.743Z,23.85
2023-04-08T16:33:17.669Z,23.68
2023-04-08T16:35:45.527Z,23.68
2023-04-08T16:38:13.113Z,23.23
2023-04-08T16:40:40.621Z,23.31
2023-04-08T16:43:08.170Z,21.82
2023-04-08T16:45:36.091Z,23.39
2023-04-08T16:48:04.007Z,23.85
2023-04-08T16:50:31.930Z,21.96
2023-04-08T16:53:00.282Z,21.61
2023-04-08T16:55:27.762Z,21.93
2023-04-08T16:57:55.454Z,21.84
2023-04-08T17:00:23.280Z,21.31
2023-04-08T17:02:51.074Z,21.86
2023-04-08T17:05:18.743Z,22.05
2023-04-08T17:07:46.330Z,21.99
2023-04-08T17:12:42.403Z,22.74
2023-04-08T17:15:10.766Z,21.33
2023-04-08T17:17:38.729Z,22.14
2023-04-08T17:20:07.482Z,22.01
2023-04-08T17:22:35.869Z,21.85
2023-04-08T17:25:03.442Z,21.94
2023-04-08T17:27:31.219Z,22.30
2023-04-08T17:29:58.904Z,22.20
2023-04-08T17:32:27.248Z,22.65
2023-04-08T17:34:54.844Z,21.39
2023-04-08T17:37:22.320Z,22.16
2023-04-08T17:39:51.591Z,22.22
2023-04-08T17:42:22.457Z,23.46
2023-04-08T17:44:50.275Z,23.80
2023-04-08T17:47:17.888Z,23.49
2023-04-08T17:49:45.435Z,23.57
2023-04-08T17:52:13.210Z,23.16
2023-04-08T17:54:41.512Z,23.32
2023-04-08T17:57:09.129Z,23.25
2023-04-08T17:59:36.773Z,23.80
2023-04-08T18:02:04.350Z,23.58
2023-04-08T18:04:32.079Z,24.03
2023-04-08T18:06:59.900Z,23.77
2023-04-08T18:09:27.432Z,22.71
2023-04-08T18:11:55.451Z,22.10
2023-04-08T18:14:23.026Z,23.05
2023-04-08T18:16:50.649Z,23.21
2023-04-08T18:19:18.620Z,23.37
2023-04-08T18:21:46.556Z,23.41
2023-04-08T18:24:14.053Z,22.90
2023-04-08T18:29:09.534Z,22.84
2023-04-08T18:31:37.507Z,22.16
2023-04-08T18:34:05.532Z,23.34
2023-04-08T18:36:33.163Z,23.57
2023-04-08T18:39:02.369Z,23.82
2023-04-08T18:41:29.976Z,22.62
2023-04-08T18:43:58.142Z,23.69
2023-04-08T18:46:25.903Z,22.70
2023-04-08T18:48:53.542Z,23.59
2023-04-08T18:51:21.189Z,23.88
2023-04-08T18:53:49.742Z,23.46
2023-04-08T18:56:18.681Z,23.82
2023-04-08T18:58:47.104Z,23.74
2023-04-08T19:01:14.973Z,23.45
2023-04-08T19:03:46.065Z,23.23
2023-04-08T19:06:13.780Z,23.00
2023-04-08T19:08:41.554Z,23.14
2023-04-08T19:11:09.061Z,23.53
2023-04-08T19:13:37.042Z,23.85
2023-04-08T19:16:05.105Z,23.96
2023-04-08T19:18:33.341Z,22.98
2023-04-08T19:21:01.236Z,23.14
2023-04-08T19:23:28.888Z,22.70
2023-04-08T19:25:56.705Z,23.60
2023-04-08T19:28:24.260Z,23.72
2023-04-08T19:30:51.843Z,23.30
2023-04-08T19:33:19.574Z,22.57
2023-04-08T19:35:48.637Z,22.86
2023-04-08T19:38:16.329Z,22.53
2023-04-08T19:40:43.994Z,23.02
2023-04-08T19:43:16.289Z,23.70
2023-04-08T19:45:44.428Z,23.46
2023-04-08T19:48:12.063Z,23.23
2023-04-08T19:50:39.870Z,23.59
2023-04-08T19:53:07.389Z,23.07
2023-04-08T19:55:37.395Z,22.99
2023-04-08T19:58:05.422Z,22.63
2023-04-08T20:00:33.077Z,22.55
2023-04-08T20:03:01.151Z,22.58
2023-04-08T20:05:29.071Z,22.80
2023-04-08T20:07:56.863Z,22.94
2023-04-08T20:10:24.507Z,22.17
2023-04-08T20:12:54.936Z,23.13
2023-04-08T20:15:25.246Z,22.76
2023-04-08T20:17:53.915Z,22.76
2023-04-08T20:20:21.911Z,22.95
2023-04-08T20:22:49.669Z,23.04
2023-04-08T20:25:17.355Z,22.87
2023-04-08T20:27:44.940Z,22.63
2023-04-08T20:30:13.114Z,22.96
2023-04-08T20:32:41.543Z,23.03
2023-04-08T20:35:09.269Z,22.96
2023-04-08T20:37:36.981Z,21.88
2023-04-08T20:40:05.387Z,22.70
2023-04-08T20:42:33.153Z,22.98
2023-04-08T20:45:00.922Z,22.73
2023-04-08T20:47:28.673Z,23.12
2023-04-08T20:49:56.548Z,22.60
2023-04-08T20:52:24.065Z,23.08
2023-04-08T20:54:51.589Z,22.08
2023-04-08T20:57:19.301Z,22.03
2023-04-08T20:59:47.264Z,22.33
2023-04-08T21:02:15.804Z,22.97
2023-04-08T21:04:43.946Z,22.93
2023-04-08T21:07:11.477Z,23.11
2023-04-08T21:09:39.309Z,23.18
2023-04-08T21:12:06.907Z,23.26
2023-04-08T21:14:34.817Z,22.95
2023-04-08T21:17:02.301Z,22.99
2023-04-08T21:19:29.830Z,23.00
2023-04-08T21:21:58.493Z,22.97
2023-04-08T21:24:27.135Z,22.55
2023-04-08T21:26:54.655Z,22.46
2023-04-08T21:29:22.813Z,21.91
2023-04-08T21:31:50.647Z,21.93
2023-04-08T21:34:18.264Z,19.93
2023-04-08T21:36:46.020Z,21.52
2023-04-08T21:39:13.516Z,21.29
2023-04-08T21:41:41.347Z,22.32
2023-04-08T21:44:10.234Z,22.04
2023-04-08T21:46:37.870Z,21.68
2023-04-08T21:49:05.591Z,22.30
2023-04-08T21:51:33.113Z,20.76
2023-04-08T21:54:00.754Z,21.50
2023-04-08T21:56:28.316Z,21.77
2023-04-08T21:58:55.873Z,22.28
2023-04-08T22:01:23.486Z,22.07
2023-04-08T22:03:53.846Z,21.88
2023-04-08T22:06:31.649Z,22.22
2023-04-08T22:09:00.362Z,21.75
2023-04-08T22:11:27.885Z,22.05
2023-04-08T22:13:55.418Z,21.85
2023-04-08T22:16:22.940Z,22.03
2023-04-08T22:18:51.158Z,20.71
2023-04-08T22:21:19.090Z,21.32
2023-04-08T22:23:46.669Z,21.17
2023-04-08T22:26:15.608Z,21.90
2023-04-08T22:28:44.505Z,21.67
2023-04-08T22:31:12.822Z,21.89
2023-04-08T22:33:40.451Z,21.46
2023-04-08T22:36:08.016Z,21.82
2023-04-08T22:38:35.907Z,21.55
2023-04-08T22:41:03.667Z,21.40
2023-04-08T22:43:31.237Z,21.14
2023-04-08T22:45:58.915Z,21.74
2023-04-08T22:48:26.610Z,21.18
2023-04-08T22:50:54.116Z,21.66
2023-04-08T22:53:21.908Z,21.63
2023-04-08T22:55:49.468Z,21.52
2023-04-08T22:58:17.136Z,21.56
2023-04-08T23:00:44.694Z,21.08
2023-04-08T23:03:12.264Z,21.02
2023-04-08T23:05:40.306Z,21.42
2023-04-08T23:08:08.212Z,21.03
2023-04-08T23:10:35.980Z,21.46
2023-04-08T23:13:04.000Z,21.39
2023-04-08T23:15:31.944Z,21.18
2023-04-08T23:17:59.595Z,21.14
2023-04-08T23:20:27.153Z,21.11
2023-04-08T23:22:54.707Z,21.58
2023-04-08T23:25:22.309Z,22.00
2023-04-08T23:27:49.895Z,22.04
2023-04-08T23:30:17.759Z,22.20
2023-04-08T23:32:45.458Z,21.91
2023-04-08T23:35:13.752Z,21.74
2023-04-08T23:37:41.282Z,20.94
2023-04-08T23:40:09.562Z,21.32
2023-04-08T23:42:37.225Z,21.47
2023-04-08T23:45:05.939Z,22.01
2023-04-08T23:47:33.674Z,21.53
2023-04-08T23:50:01.645Z,21.59
2023-04-08T23:52:29.362Z,21.86
2023-04-08T23:54:57.204Z,22.16
2023-04-08T23:57:24.749Z,22.36
2023-04-08T23:59:52.529Z,22.23
